Stacja Pogody
Warszawa Praga-Północ

Szerokość 52°15'43"N Długość 21°01'22"E Wysokość 110m n.p.m.


51 dzień roku.   Do końca pozostalo 314 dni.   Od wczoraj przybyło 4 min. i 4 sek. dnia.
Wschód Słońca 06:42 Górowanie Słońca 11:49 Zachód Słońca 16:57 ryby
Data juliańska 2458170.359 Odległość Słońca 147928113 km Średn. kątowa Słońca 0,323°
Wschód Księżyca 08:47 Zachód Księżyca 22:12 Wiek Księżyca 5 dni Moon
Widoczność Księżyca 24,20% Odległość Księżyca 376784 km Średn. kątowa Księżyca 0,317°
Dzień krótszy od najdłuższego o: 06:32 Długość dnia 10:14 Imieniny Leona, Ludomira, Zenobiusza



  Aktualizacja: 20-02-2018 20:33:35
TEMPERATURA
Aktualnie: -0.2°C ↓
Temperatura odczuwalna:-3.4°C
Punkt rosy-9.1°C
WIATR
Średnia prędkość: 1.1km/h ↑
Prędkość w podmuchach:2.5km/h
Przepływ w ciągu doby:37.9km
Kierunek wiatru:315°
CIŚNIENIE
Względne:1021.6hPa
Trend ciśnienia:powolny wzrost
WILGOTNOŚĆ
Wilgotność względna: 51% ↑
Podstawa chmur4019m
DESZCZ
W ostatniej godzinie: 0.0mm
Dzisiaj:0.0mm
W tym miesiącu:8.1mm
METAR
EPWA 201900Z 07010KT CAVOK 00/M08 Q1021 NOSIG
Ostrzeżenia burzowe
Prognoza 12-to godzinna (prawdopodobieństwo 75%):   Dobra pogoda prognoza





a  a a